createdAt,value
2022-12-05T00:01:58.493Z,4.46
2022-12-05T00:04:27.764Z,4.43
2022-12-05T00:06:54.603Z,4.46
2022-12-05T00:09:21.392Z,4.41
2022-12-05T00:11:48.184Z,4.40
2022-12-05T00:14:14.929Z,4.44
2022-12-05T00:16:44.429Z,4.40
2022-12-05T00:19:16.109Z,4.41
2022-12-05T00:21:44.013Z,4.45
2022-12-05T00:24:16.394Z,4.47
2022-12-05T00:26:44.063Z,4.48
2022-12-05T00:29:13.457Z,4.57
2022-12-05T00:31:41.261Z,4.48
2022-12-05T00:34:08.237Z,4.47
2022-12-05T00:36:36.838Z,4.50
2022-12-05T00:39:15.270Z,4.41
2022-12-05T00:41:43.800Z,4.44
2022-12-05T00:44:14.077Z,4.54
2022-12-05T00:46:43.758Z,4.44
2022-12-05T00:49:12.211Z,4.45
2022-12-05T00:51:43.695Z,4.47
2022-12-05T00:54:15.558Z,4.49
2022-12-05T00:56:47.441Z,4.46
2022-12-05T00:59:19.751Z,4.48
2022-12-05T01:01:52.165Z,4.47
2022-12-05T01:04:24.717Z,4.48
2022-12-05T01:06:57.934Z,4.50
2022-12-05T01:09:27.108Z,4.46
2022-12-05T01:11:54.532Z,4.45
2022-12-05T01:14:25.544Z,4.50
2022-12-05T01:16:56.427Z,4.48
2022-12-05T01:19:32.072Z,4.47
2022-12-05T01:22:00.825Z,4.48
2022-12-05T01:24:29.557Z,4.46
2022-12-05T01:26:57.939Z,4.47
2022-12-05T01:29:25.529Z,4.48
2022-12-05T01:31:53.406Z,4.47
2022-12-05T01:34:21.151Z,4.45
2022-12-05T01:36:48.372Z,4.40
2022-12-05T01:39:15.504Z,4.35
2022-12-05T01:41:52.717Z,4.36
2022-12-05T01:44:21.749Z,4.38
2022-12-05T01:46:52.380Z,4.34
2022-12-05T01:49:43.391Z,4.34
2022-12-05T01:52:26.542Z,4.32
2022-12-05T01:55:04.672Z,4.31
2022-12-05T01:57:36.524Z,4.32
2022-12-05T02:00:13.452Z,4.25
2022-12-05T02:02:58.317Z,4.31
2022-12-05T02:05:38.331Z,4.33
2022-12-05T02:08:09.829Z,4.32
2022-12-05T02:10:52.656Z,4.28
2022-12-05T02:14:06.098Z,4.35
2022-12-05T02:17:14.798Z,4.35
2022-12-05T02:20:21.527Z,4.37
2022-12-05T02:23:15.820Z,4.37
2022-12-05T02:26:19.576Z,4.38
2022-12-05T02:29:40.440Z,4.40
2022-12-05T02:32:29.838Z,4.35
2022-12-05T02:35:06.737Z,4.40
2022-12-05T02:37:58.788Z,4.38
2022-12-05T02:40:55.208Z,4.35
2022-12-05T02:43:41.765Z,4.36
2022-12-05T02:46:27.193Z,4.34
2022-12-05T02:49:06.970Z,4.33
2022-12-05T02:51:46.114Z,4.35
2022-12-05T02:54:24.389Z,4.33
2022-12-05T02:56:55.054Z,4.34
2022-12-05T02:59:25.038Z,4.33
2022-12-05T03:01:53.092Z,4.32
2022-12-05T03:04:24.953Z,4.33
2022-12-05T03:07:01.768Z,4.35
2022-12-05T03:09:38.846Z,4.33
2022-12-05T03:12:14.139Z,4.38
2022-12-05T03:15:01.464Z,4.33
2022-12-05T03:17:43.054Z,4.34
2022-12-05T03:20:28.352Z,4.32
2022-12-05T03:23:08.617Z,4.37
2022-12-05T03:26:33.627Z,4.32
2022-12-05T03:29:36.447Z,4.31
2022-12-05T03:32:59.031Z,4.34
2022-12-05T03:35:31.273Z,4.33
2022-12-05T03:38:09.078Z,4.33
2022-12-05T03:41:02.594Z,4.32
2022-12-05T03:44:14.481Z,4.32
2022-12-05T03:46:56.767Z,4.32
2022-12-05T03:49:47.978Z,4.31
2022-12-05T03:53:18.735Z,4.33
2022-12-05T03:55:43.984Z,4.43
2022-12-05T03:58:26.399Z,4.35
2022-12-05T04:01:03.088Z,4.34
2022-12-05T04:03:51.637Z,4.27
2022-12-05T04:06:39.444Z,4.31
2022-12-05T04:09:18.756Z,4.34
2022-12-05T04:12:00.132Z,4.31
2022-12-05T04:14:52.016Z,4.28
2022-12-05T04:18:03.083Z,4.31
2022-12-05T04:21:12.979Z,4.34
2022-12-05T04:23:44.809Z,4.31
2022-12-05T04:26:31.893Z,4.32
2022-12-05T04:29:36.531Z,4.36
2022-12-05T04:32:15.661Z,4.32
2022-12-05T04:34:55.147Z,4.30
2022-12-05T04:37:32.048Z,4.33
2022-12-05T04:40:19.765Z,4.32
2022-12-05T04:42:55.075Z,4.34
2022-12-05T04:45:26.308Z,4.34
2022-12-05T04:48:10.125Z,4.31
2022-12-05T04:50:40.362Z,4.30
2022-12-05T04:53:14.087Z,4.33
2022-12-05T04:55:52.089Z,4.33
2022-12-05T04:58:32.814Z,4.36
2022-12-05T05:01:10.811Z,4.40
2022-12-05T05:04:06.987Z,4.36
2022-12-05T05:06:43.987Z,4.38
2022-12-05T05:09:11.133Z,4.37
2022-12-05T05:11:38.488Z,4.41
2022-12-05T05:14:08.248Z,4.33
2022-12-05T05:16:42.821Z,4.31
2022-12-05T05:19:13.526Z,4.40
2022-12-05T05:21:43.016Z,4.36
2022-12-05T05:24:12.571Z,4.44
2022-12-05T05:26:44.644Z,4.44
2022-12-05T05:29:14.520Z,4.41
2022-12-05T05:31:47.607Z,4.42
2022-12-05T07:31:55.246Z,4.83
2022-12-05T07:39:47.018Z,4.77
2022-12-05T07:47:38.050Z,4.78
2022-12-05T07:50:06.135Z,4.77
2022-12-05T07:52:32.948Z,4.73
2022-12-05T07:54:59.669Z,4.68
2022-12-05T07:57:26.373Z,4.66
2022-12-05T07:59:52.955Z,4.58
2022-12-05T08:02:20.266Z,4.57
2022-12-05T08:04:47.279Z,4.56
2022-12-05T08:07:14.091Z,4.49
2022-12-05T08:09:40.872Z,4.49
2022-12-05T08:12:07.950Z,4.46
2022-12-05T08:14:37.024Z,4.42
2022-12-05T08:17:04.822Z,4.38
2022-12-05T08:19:31.752Z,4.34
2022-12-05T08:21:58.468Z,4.35
2022-12-05T08:24:25.247Z,4.28
2022-12-05T08:26:52.229Z,4.27
2022-12-05T08:29:22.494Z,4.27
2022-12-05T08:31:52.004Z,4.16
2022-12-05T08:34:22.534Z,4.17
2022-12-05T08:36:49.657Z,4.17
2022-12-05T08:39:23.133Z,4.14
2022-12-05T08:41:50.172Z,4.14
2022-12-05T08:44:18.478Z,4.12
2022-12-05T08:46:50.153Z,4.11
2022-12-05T08:49:20.669Z,4.11
2022-12-05T08:51:50.334Z,4.08
2022-12-05T08:54:17.490Z,4.04
2022-12-05T08:56:44.227Z,4.03
2022-12-05T08:59:11.337Z,4.00
2022-12-05T09:01:42.186Z,4.00
2022-12-05T09:04:09.629Z,4.00
2022-12-05T09:06:39.103Z,3.98
2022-12-05T09:09:11.551Z,4.01
2022-12-05T09:11:48.807Z,4.03
2022-12-05T09:14:16.219Z,4.02
2022-12-05T09:16:47.327Z,3.96
2022-12-05T09:19:24.869Z,3.92
2022-12-05T09:21:53.093Z,3.89
2022-12-05T09:24:20.101Z,3.89
2022-12-05T09:26:47.516Z,3.91
2022-12-05T09:29:17.682Z,3.92
2022-12-05T09:31:48.680Z,3.95
2022-12-05T09:34:18.310Z,3.96
2022-12-05T09:36:47.301Z,3.99
2022-12-05T09:39:14.005Z,4.02
2022-12-05T09:42:20.691Z,3.97
2022-12-05T09:45:10.725Z,4.02
2022-12-05T09:48:11.380Z,4.01
2022-12-05T09:50:41.013Z,4.03
2022-12-05T09:53:19.295Z,4.03
2022-12-05T09:55:54.374Z,4.01
2022-12-05T09:58:30.748Z,4.01
2022-12-05T10:01:32.843Z,4.00
2022-12-05T10:04:40.493Z,3.99
2022-12-05T10:07:16.285Z,3.98
2022-12-05T10:10:13.500Z,4.00
2022-12-05T10:13:24.484Z,4.03
2022-12-05T10:16:03.135Z,4.07
2022-12-05T10:18:52.920Z,4.09
2022-12-05T10:21:39.492Z,4.11
2022-12-05T10:24:18.837Z,4.14
2022-12-05T10:26:58.144Z,4.07
2022-12-05T11:09:30.078Z,4.11
2022-12-05T11:12:20.954Z,4.12
2022-12-05T11:15:04.728Z,4.13
2022-12-05T11:17:38.423Z,4.05
2022-12-05T11:20:20.305Z,4.05
2022-12-05T11:22:53.655Z,4.03
2022-12-05T11:34:23.580Z,3.98
2022-12-05T11:37:07.050Z,4.00
2022-12-05T11:39:37.056Z,4.02
2022-12-05T15:05:37.143Z,3.93
2022-12-05T18:09:25.116Z,3.44
2022-12-05T18:34:54.734Z,3.33
2022-12-05T18:37:22.339Z,3.34
2022-12-05T19:23:05.664Z,3.23
2022-12-05T20:12:17.468Z,3.32
2022-12-05T20:14:44.211Z,3.30
2022-12-05T20:17:11.370Z,3.29
2022-12-05T20:19:38.157Z,3.33
2022-12-05T20:22:18.930Z,3.33
2022-12-05T21:00:11.269Z,3.72
2022-12-05T22:37:27.846Z,3.65
2022-12-05T22:39:54.693Z,3.67
2022-12-05T22:45:32.785Z,3.67
2022-12-05T22:47:59.453Z,3.69
2022-12-05T22:51:03.331Z,3.68
2022-12-05T22:53:44.567Z,3.61
2022-12-05T22:56:16.632Z,3.62
2022-12-05T22:58:46.853Z,3.67
2022-12-05T23:01:21.781Z,3.67
2022-12-05T23:03:58.278Z,3.68
2022-12-05T23:06:27.757Z,3.65
2022-12-05T23:08:55.740Z,3.65
2022-12-05T23:11:24.827Z,3.66
2022-12-05T23:14:01.933Z,3.64
2022-12-05T23:16:34.201Z,3.65
2022-12-05T23:19:05.397Z,3.64
2022-12-05T23:21:40.817Z,3.60
2022-12-05T23:24:12.886Z,3.61
2022-12-05T23:26:46.257Z,3.65
2022-12-05T23:29:14.766Z,3.64
2022-12-05T23:31:43.187Z,3.62
2022-12-05T23:34:13.041Z,3.63
2022-12-05T23:36:39.922Z,3.58
2022-12-05T23:39:06.980Z,3.62
2022-12-05T23:41:34.178Z,3.60
2022-12-05T23:44:01.533Z,3.63
2022-12-05T23:46:29.223Z,3.60
2022-12-05T23:48:57.982Z,3.59
2022-12-05T23:51:29.434Z,3.61
2022-12-05T23:54:00.913Z,3.58
2022-12-05T23:56:33.593Z,3.54
2022-12-05T23:59:03.822Z,3.57
